Diablo, CA (94528)

10:42 PM PST on December 19, 2014 (GMT -0800)
Montair School | Change Station
CLOSE
Current Station
Personal Weather Station
Location: Danville, CA
Elevation: 394 ft
Nearby Weather Stations

Elev 394 ft 37.82 °N, 122.00 °W | Updated 10 seconds ago

Overcast
Overcast
52.9 °F
Feels Like 52.9 °F
N
0.0
Wind Variable Wind from NW
Gusts 0.0 mph

Today
High -- | Low -- °F
--% Chance of Precip.
Yesterday
High -- | Low -- °F
Precip. -- in
7:18 AM 4:51 PM
Waning Crescent, 4% visible
Pressure 30.17 in
Visibility 3.0 miles
Clouds Overcast 500 ft
Dew Point 52 °F
Humidity 96%
Rainfall 0.23 in
Snow Depth Not available.
UV 0 out of 12
Pollen 2.00 out of 12
Air Quality Not available.
Flu Activity Not available.
SPECI KCCR 200632Z 00000KT 3SM BR OVC005 12/11 A3017 RMK AO2 T01220111

More Conditions Fewer Conditions

Pressure 30.17 in
Visibility 3.0 miles
Clouds Overcast 500 ft
Dew Point 52 °F
Humidity 96%
Rainfall 0.23 in
Snow Depth Not available.
UV 0 out of 12
Pollen 2.00 out of 12
Air Quality Not available.
Flu Activity Not available.
SPECI KCCR 200632Z 00000KT 3SM BR OVC005 12/11 A3017 RMK AO2 T01220111

More Conditions Fewer Conditions

10-Day Weather Forecast

Almanac

Astronomy

Dec. 19, 2014 Rise Set
Actual Time
Civil Twilight
Nautical Twilight
Astronomical Twilight
Moon
Length of Visible Light
Length of Day
Tomorrow will be .
, % of the Moon is Illuminated

Today's Extremes

State Highs State Lows

Community

WunderPhotos

Upload Photos

1,779,144 photos uploaded!

WunderBlogs® & News

Nearby

Air Quality

  Air Quality AQ Index Pollutant
Not available.

Snow Depth

Station Depth Elevation

Earthquake Activity

City Distance Mag. Time & Date
Minimum magnitude displayed is 2.5.

Coastal Water Temperatures

Place Temperature

Nearby Weather Stations